createdAt,value
2023-04-29T00:03:48.399Z,6.05
2023-04-29T00:08:53.486Z,6.05
2023-04-29T00:13:57.018Z,6.02
2023-04-29T00:19:00.944Z,5.95
2023-04-29T00:24:06.232Z,6.04
2023-04-29T00:29:09.836Z,6.00
2023-04-29T00:34:13.333Z,6.03
2023-04-29T00:39:18.226Z,6.09
2023-04-29T00:44:21.414Z,6.15
2023-04-29T00:49:24.847Z,6.05
2023-04-29T00:54:29.960Z,6.04
2023-04-29T00:59:33.518Z,5.94
2023-04-29T01:04:37.192Z,5.91
2023-04-29T01:09:54.953Z,6.03
2023-04-29T01:15:07.076Z,5.93
2023-04-29T01:20:11.778Z,5.99
2023-04-29T01:25:16.794Z,6.02
2023-04-29T01:30:30.213Z,6.03
2023-04-29T01:35:47.606Z,5.94
2023-04-29T01:41:01.006Z,5.89
2023-04-29T01:46:06.116Z,5.69
2023-04-29T01:51:09.631Z,5.73
2023-04-29T01:56:14.495Z,5.62
2023-04-29T02:01:17.791Z,5.65
2023-04-29T02:06:21.266Z,5.64
2023-04-29T02:11:26.295Z,5.67
2023-04-29T02:16:29.855Z,5.64
2023-04-29T02:21:35.330Z,5.60
2023-04-29T02:26:40.331Z,5.64
2023-04-29T02:31:43.910Z,5.60
2023-04-29T02:36:47.496Z,5.66
2023-04-29T02:41:55.834Z,5.74
2023-04-29T02:46:59.420Z,5.61
2023-04-29T02:52:02.887Z,5.70
2023-04-29T02:57:08.178Z,5.60
2023-04-29T03:02:11.881Z,5.41
2023-04-29T03:07:17.577Z,5.36
2023-04-29T03:12:22.532Z,5.23
2023-04-29T03:17:25.764Z,5.20
2023-04-29T03:22:29.197Z,5.23
2023-04-29T03:27:34.177Z,5.23
2023-04-29T03:32:37.693Z,5.27
2023-04-29T03:37:44.527Z,5.31
2023-04-29T03:42:49.658Z,5.42
2023-04-29T03:47:53.634Z,5.64
2023-04-29T03:52:57.989Z,5.58
2023-04-29T03:58:03.081Z,5.68
2023-04-29T04:03:06.707Z,5.80
2023-04-29T04:08:11.074Z,5.86
2023-04-29T04:13:16.049Z,5.97
2023-04-29T04:18:19.711Z,6.03
2023-04-29T04:23:23.241Z,6.25
2023-04-29T04:28:28.121Z,6.37
2023-04-29T04:33:31.516Z,6.63
2023-04-29T04:38:35.545Z,6.65
2023-04-29T04:43:41.682Z,6.77
2023-04-29T04:48:45.216Z,6.90
2023-04-29T04:53:48.797Z,6.99
2023-04-29T04:58:53.693Z,7.10
2023-04-29T05:03:57.648Z,7.40
2023-04-29T05:09:01.260Z,7.49
2023-04-29T05:14:06.550Z,7.68
2023-04-29T05:19:10.068Z,7.68
2023-04-29T05:24:13.545Z,7.93
2023-04-29T05:29:18.564Z,8.10
2023-04-29T05:34:22.162Z,8.24
2023-04-29T05:39:26.957Z,8.36
2023-04-29T05:44:31.850Z,8.51
2023-04-29T05:49:35.115Z,8.68
2023-04-29T05:54:38.675Z,8.97
2023-04-29T05:59:43.559Z,9.32
2023-04-29T06:04:47.983Z,9.52
2023-04-29T06:09:51.995Z,9.52
2023-04-29T06:14:57.130Z,10.24
2023-04-29T06:20:00.603Z,10.79
2023-04-29T06:25:04.039Z,10.47
2023-04-29T06:30:10.465Z,10.74
2023-04-29T06:35:13.960Z,10.77
2023-04-29T06:40:17.495Z,10.86
2023-04-29T06:45:23.853Z,10.84
2023-04-29T06:50:28.198Z,11.16
2023-04-29T06:55:31.731Z,11.34
2023-04-29T07:00:36.934Z,11.23
2023-04-29T07:05:42.046Z,11.33
2023-04-29T07:10:45.570Z,11.41
2023-04-29T07:15:50.564Z,15.32
2023-04-29T07:20:55.945Z,17.64
2023-04-29T07:25:59.396Z,18.56
2023-04-29T07:31:04.506Z,18.96
2023-04-29T07:36:09.213Z,20.21
2023-04-29T07:41:12.764Z,19.19
2023-04-29T07:46:18.438Z,22.86
2023-04-29T07:51:21.978Z,23.57
2023-04-29T07:56:26.195Z,22.47
2023-04-29T08:01:31.070Z,20.60
2023-04-29T08:06:34.717Z,17.71
2023-04-29T08:11:40.078Z,20.87
2023-04-29T08:16:44.983Z,23.91
2023-04-29T08:21:48.494Z,23.96
2023-04-29T08:26:52.612Z,20.98
2023-04-29T08:31:57.639Z,19.69
2023-04-29T08:37:01.399Z,19.23
2023-04-29T08:42:10.062Z,19.68
2023-04-29T08:47:16.536Z,19.72
2023-04-29T08:52:19.988Z,19.52
2023-04-29T08:57:26.412Z,19.03
2023-04-29T09:02:31.438Z,18.86
2023-04-29T09:07:36.293Z,18.13
2023-04-29T09:12:39.951Z,17.57
2023-04-29T09:17:46.668Z,17.18
2023-04-29T09:22:50.650Z,17.32
2023-04-29T09:27:54.663Z,16.75
2023-04-29T09:33:10.202Z,16.12
2023-04-29T09:38:15.602Z,15.47
2023-04-29T09:43:21.645Z,15.34
2023-04-29T09:48:35.630Z,15.64
2023-04-29T09:53:39.199Z,16.02
2023-04-29T09:58:42.708Z,16.83
2023-04-29T10:03:49.992Z,17.42
2023-04-29T10:08:53.687Z,16.82
2023-04-29T10:13:57.998Z,16.05
2023-04-29T10:19:08.524Z,15.97
2023-04-29T10:24:13.949Z,16.08
2023-04-29T10:29:19.734Z,15.60
2023-04-29T10:34:25.930Z,15.69
2023-04-29T10:39:37.109Z,16.11
2023-04-29T10:45:20.123Z,16.07
2023-04-29T10:50:25.145Z,16.15
2023-04-29T10:55:28.846Z,16.87
2023-04-29T11:00:33.449Z,17.10
2023-04-29T11:05:38.538Z,16.41
2023-04-29T11:10:44.008Z,16.27
2023-04-29T11:15:47.614Z,16.40
2023-04-29T11:21:20.047Z,16.31
2023-04-29T11:26:25.237Z,16.02
2023-04-29T11:31:30.376Z,15.59
2023-04-29T11:36:35.918Z,15.20
2023-04-29T11:41:40.003Z,15.08
2023-04-29T11:46:43.485Z,15.10
2023-04-29T11:51:48.483Z,15.33
2023-04-29T11:56:54.614Z,15.38
2023-04-29T12:01:59.866Z,15.76
2023-04-29T12:07:06.125Z,15.92
2023-04-29T12:12:09.822Z,15.90
2023-04-29T12:17:13.828Z,15.55
2023-04-29T12:22:20.865Z,15.99
2023-04-29T12:27:26.712Z,16.07
2023-04-29T12:32:30.260Z,16.03
2023-04-29T12:37:35.429Z,16.03
2023-04-29T12:42:41.557Z,16.02
2023-04-29T12:47:46.739Z,15.94
2023-04-29T12:52:51.994Z,15.43
2023-04-29T12:57:55.508Z,15.01
2023-04-29T13:02:59.348Z,14.85
2023-04-29T13:08:06.076Z,14.75
2023-04-29T13:13:09.789Z,14.51
2023-04-29T13:18:13.308Z,14.54
2023-04-29T13:23:18.279Z,14.55
2023-04-29T13:28:22.398Z,14.31
2023-04-29T13:33:25.929Z,14.29
2023-04-29T13:38:30.951Z,14.43
2023-04-29T13:43:38.439Z,14.43
2023-04-29T13:49:17.297Z,14.39
2023-04-29T13:59:40.010Z,13.87
2023-04-29T14:04:39.522Z,13.67
2023-04-29T14:09:44.652Z,13.64
2023-04-29T14:14:48.112Z,13.61
2023-04-29T14:19:51.746Z,13.59
2023-04-29T14:24:56.831Z,13.64
2023-04-29T14:30:00.371Z,13.58
2023-04-29T14:35:03.890Z,13.49
2023-04-29T14:40:10.956Z,13.51
2023-04-29T14:45:14.502Z,13.61
2023-04-29T14:50:18.488Z,14.04
2023-04-29T14:55:25.996Z,14.32
2023-04-29T15:00:29.444Z,14.32
2023-04-29T15:05:33.100Z,14.38
2023-04-29T15:10:38.097Z,14.48
2023-04-29T15:15:41.651Z,14.54
2023-04-29T15:20:45.185Z,14.61
2023-04-29T15:25:50.166Z,14.36
2023-04-29T15:30:53.733Z,14.01
2023-04-29T15:35:57.995Z,13.70
2023-04-29T15:41:03.735Z,13.42
2023-04-29T15:46:07.462Z,13.05
2023-04-29T15:51:13.974Z,12.75
2023-04-29T15:56:19.142Z,12.56
2023-04-29T16:01:22.678Z,12.37
2023-04-29T16:06:27.751Z,12.38
2023-04-29T16:11:32.771Z,12.38
2023-04-29T16:16:36.287Z,12.37
2023-04-29T16:21:40.007Z,12.21
2023-04-29T16:26:44.996Z,12.21
2023-04-29T16:31:48.609Z,12.13
2023-04-29T16:36:52.767Z,12.03
2023-04-29T16:41:57.761Z,11.81
2023-04-29T16:47:01.329Z,11.53
2023-04-29T16:52:05.810Z,11.34
2023-04-29T16:57:10.860Z,11.14
2023-04-29T17:02:14.428Z,10.88
2023-04-29T17:07:19.595Z,10.68
2023-04-29T17:12:24.500Z,10.51
2023-04-29T17:17:28.003Z,10.21
2023-04-29T17:22:32.897Z,9.93
2023-04-29T17:27:37.590Z,9.68
2023-04-29T17:32:41.512Z,9.37
2023-04-29T17:37:45.100Z,9.15
2023-04-29T17:42:50.500Z,8.98
2023-04-29T17:47:54.300Z,8.78
2023-04-29T17:52:57.928Z,8.53
2023-04-29T17:58:02.785Z,8.35
2023-04-29T18:03:06.482Z,8.23
2023-04-29T18:08:10.009Z,8.03
2023-04-29T18:13:14.974Z,7.92
2023-04-29T18:18:18.157Z,7.76
2023-04-29T18:23:22.636Z,7.59
2023-04-29T18:28:29.133Z,7.47
2023-04-29T18:33:32.586Z,7.32
2023-04-29T18:38:36.270Z,7.22
2023-04-29T18:43:41.301Z,7.10
2023-04-29T18:48:44.898Z,6.99
2023-04-29T18:53:48.473Z,6.88
2023-04-29T18:58:53.531Z,6.78
2023-04-29T19:03:57.710Z,6.72
2023-04-29T19:09:01.448Z,6.56
2023-04-29T19:14:06.663Z,6.45
2023-04-29T19:19:10.487Z,6.30
2023-04-29T19:24:14.011Z,6.19
2023-04-29T19:29:19.073Z,6.09
2023-04-29T19:34:22.547Z,5.99
2023-04-29T19:39:26.969Z,5.92
2023-04-29T19:44:32.117Z,5.90
2023-04-29T19:49:35.702Z,5.80
2023-04-29T19:54:41.003Z,5.74
2023-04-29T19:59:46.132Z,5.66
2023-04-29T20:04:49.674Z,5.55
2023-04-29T20:09:53.552Z,5.49
2023-04-29T20:14:59.003Z,5.42
2023-04-29T20:20:02.628Z,5.09
2023-04-29T20:25:08.069Z,5.25
2023-04-29T20:30:13.372Z,5.19
2023-04-29T20:35:17.028Z,5.08
2023-04-29T20:40:20.918Z,4.87
2023-04-29T20:45:26.130Z,4.73
2023-04-29T20:50:29.674Z,4.49
2023-04-29T20:55:33.275Z,4.52
2023-04-29T21:00:38.341Z,4.53
2023-04-29T21:05:41.993Z,4.44
2023-04-29T21:10:45.696Z,4.35
2023-04-29T21:15:51.065Z,4.32
2023-04-29T21:20:54.705Z,4.22
2023-04-29T21:25:58.148Z,4.18
2023-04-29T21:31:03.117Z,4.14
2023-04-29T21:36:06.814Z,4.09
2023-04-29T21:41:19.441Z,3.90
2023-04-29T21:46:25.017Z,4.00
2023-04-29T21:51:29.686Z,3.91
2023-04-29T21:56:33.286Z,3.85
2023-04-29T22:01:48.600Z,3.82
2023-04-29T22:06:52.387Z,3.69
2023-04-29T22:11:55.876Z,3.61
2023-04-29T22:17:00.765Z,3.54
2023-04-29T22:22:04.086Z,3.23
2023-04-29T22:27:07.502Z,3.15
2023-04-29T22:32:12.498Z,3.14
2023-04-29T22:37:16.256Z,3.20
2023-04-29T22:42:19.758Z,3.12
2023-04-29T22:47:24.785Z,3.14
2023-04-29T22:52:28.324Z,3.12
2023-04-29T22:57:31.898Z,3.11
2023-04-29T23:02:36.778Z,3.09
2023-04-29T23:07:39.953Z,3.11
2023-04-29T23:12:43.392Z,2.97
2023-04-29T23:17:48.312Z,2.97
2023-04-29T23:22:51.604Z,2.83
2023-04-29T23:27:55.802Z,2.81
2023-04-29T23:33:00.894Z,2.80
2023-04-29T23:38:04.650Z,2.74
2023-04-29T23:43:08.145Z,2.71
2023-04-29T23:48:13.491Z,2.70
2023-04-29T23:53:17.153Z,2.66
2023-04-29T23:58:20.639Z,2.52
